createdAt,value
2023-01-08T00:01:18.495Z,100.00
2023-01-08T00:03:20.497Z,100.00
2023-01-08T00:05:22.491Z,100.00
2023-01-08T00:07:24.390Z,100.00
2023-01-08T00:09:26.354Z,100.00
2023-01-08T00:11:28.723Z,100.00
2023-01-08T00:13:30.750Z,100.00
2023-01-08T00:15:33.993Z,100.00
2023-01-08T00:17:35.947Z,100.00
2023-01-08T00:19:37.842Z,100.00
2023-01-08T00:21:40.197Z,100.00
2023-01-08T00:23:42.088Z,100.00
2023-01-08T00:25:44.068Z,100.00
2023-01-08T00:27:47.068Z,100.00
2023-01-08T00:29:48.983Z,100.00
2023-01-08T00:31:50.906Z,100.00
2023-01-08T00:33:53.853Z,100.00
2023-01-08T00:35:55.805Z,100.00
2023-01-08T00:37:57.768Z,100.00
2023-01-08T00:40:00.681Z,100.00
2023-01-08T00:42:02.587Z,100.00
2023-01-08T00:44:04.599Z,100.00
2023-01-08T00:46:07.633Z,100.00
2023-01-08T00:48:10.576Z,100.00
2023-01-08T00:50:12.700Z,100.00
2023-01-08T00:52:15.598Z,100.00
2023-01-08T00:54:17.582Z,100.00
2023-01-08T00:56:19.501Z,100.00
2023-01-08T00:58:21.373Z,100.00
2023-01-08T01:00:23.490Z,100.00
2023-01-08T01:02:25.502Z,100.00
2023-01-08T01:04:27.561Z,100.00
2023-01-08T01:06:29.856Z,100.00
2023-01-08T01:08:33.978Z,100.00
2023-01-08T01:10:35.957Z,100.00
2023-01-08T01:12:41.888Z,100.00
2023-01-08T01:14:43.903Z,100.00
2023-01-08T01:16:47.827Z,100.00
2023-01-08T01:18:49.810Z,100.00
2023-01-08T01:20:51.757Z,100.00
2023-01-08T01:22:54.642Z,100.00
2023-01-08T01:24:57.339Z,100.00
2023-01-08T01:26:59.555Z,100.00
2023-01-08T01:29:01.824Z,100.00
2023-01-08T01:31:04.337Z,100.00
2023-01-08T01:33:06.229Z,100.00
2023-01-08T01:35:08.610Z,100.00
2023-01-08T01:37:14.681Z,100.00
2023-01-08T01:39:16.632Z,100.00
2023-01-08T01:41:24.824Z,100.00
2023-01-08T01:43:41.400Z,100.00
2023-01-08T01:45:44.301Z,100.00
2023-01-08T01:47:55.606Z,100.00
2023-01-08T01:50:07.118Z,100.00
2023-01-08T01:52:10.124Z,100.00
2023-01-08T01:54:13.468Z,100.00
2023-01-08T01:56:16.271Z,100.00
2023-01-08T01:58:29.476Z,100.00
2023-01-08T02:00:33.819Z,100.00
2023-01-08T02:02:35.745Z,100.00
2023-01-08T02:04:37.791Z,100.00
2023-01-08T02:06:58.631Z,100.00
2023-01-08T02:09:30.758Z,100.00
2023-01-08T02:11:42.507Z,100.00
2023-01-08T02:13:54.675Z,100.00
2023-01-08T02:16:13.075Z,100.00
2023-01-08T02:18:29.616Z,100.00
2023-01-08T02:20:45.484Z,100.00
2023-01-08T02:22:56.430Z,100.00
2023-01-08T02:25:22.831Z,100.00
2023-01-08T02:27:28.312Z,100.00
2023-01-08T02:29:32.605Z,100.00
2023-01-08T02:31:37.669Z,100.00
2023-01-08T02:33:41.613Z,100.00
2023-01-08T02:35:52.659Z,100.00
2023-01-08T02:37:54.639Z,100.00
2023-01-08T02:39:56.554Z,100.00
2023-01-08T02:42:06.415Z,100.00
2023-01-08T02:44:13.157Z,100.00
2023-01-08T02:46:20.660Z,100.00
2023-01-08T02:48:25.692Z,100.00
2023-01-08T02:51:03.180Z,100.00
2023-01-08T02:53:25.582Z,100.00
2023-01-08T02:55:30.531Z,100.00
2023-01-08T02:57:34.283Z,100.00
2023-01-08T02:59:38.688Z,100.00
2023-01-08T03:01:42.248Z,100.00
2023-01-08T03:03:49.813Z,100.00
2023-01-08T03:05:56.960Z,100.00
2023-01-08T03:07:58.933Z,100.00
2023-01-08T03:10:01.384Z,100.00
2023-01-08T03:12:31.294Z,100.00
2023-01-08T03:14:37.581Z,100.00
2023-01-08T03:16:48.242Z,100.00
2023-01-08T03:18:55.939Z,100.00
2023-01-08T03:20:58.175Z,100.00
2023-01-08T03:23:02.595Z,100.00
2023-01-08T03:25:07.185Z,100.00
2023-01-08T03:27:16.581Z,100.00
2023-01-08T03:29:24.562Z,100.00
2023-01-08T03:31:29.393Z,100.00
2023-01-08T03:33:32.756Z,100.00
2023-01-08T03:35:38.907Z,100.00
2023-01-08T03:37:46.115Z,100.00
2023-01-08T03:40:08.406Z,100.00
2023-01-08T03:42:15.224Z,100.00
2023-01-08T03:44:17.088Z,100.00
2023-01-08T03:46:29.282Z,100.00
2023-01-08T03:48:34.429Z,100.00
2023-01-08T03:50:36.544Z,100.00
2023-01-08T03:52:38.421Z,100.00
2023-01-08T03:54:40.288Z,100.00
2023-01-08T03:56:42.825Z,100.00
2023-01-08T03:58:44.740Z,100.00
2023-01-08T04:00:47.161Z,100.00
2023-01-08T04:02:50.092Z,100.00
2023-01-08T04:04:51.936Z,100.00
2023-01-08T04:06:53.917Z,100.00
2023-01-08T04:08:55.904Z,100.00
2023-01-08T04:10:57.763Z,100.00
2023-01-08T04:12:59.617Z,100.00
2023-01-08T04:15:01.660Z,100.00
2023-01-08T04:17:03.681Z,100.00
2023-01-08T04:19:05.596Z,100.00
2023-01-08T04:21:07.632Z,100.00
2023-01-08T04:23:09.548Z,100.00
2023-01-08T04:25:11.761Z,100.00
2023-01-08T04:27:14.813Z,100.00
2023-01-08T04:29:16.745Z,100.00
2023-01-08T04:31:18.581Z,100.00
2023-01-08T04:33:20.511Z,100.00
2023-01-08T04:35:23.926Z,100.00
2023-01-08T04:37:25.808Z,100.00
2023-01-08T04:39:27.763Z,100.00
2023-01-08T04:41:31.931Z,100.00
2023-01-08T04:43:33.941Z,100.00
2023-01-08T04:45:35.906Z,100.00
2023-01-08T04:47:37.800Z,100.00
2023-01-08T04:49:39.609Z,100.00
2023-01-08T04:51:41.461Z,100.00
2023-01-08T04:53:43.427Z,100.00
2023-01-08T04:55:45.423Z,100.00
2023-01-08T04:57:48.315Z,100.00
2023-01-08T04:59:51.157Z,100.00
2023-01-08T05:01:54.262Z,100.00
2023-01-08T05:03:59.956Z,100.00
2023-01-08T05:06:02.850Z,100.00
2023-01-08T05:08:05.128Z,100.00
2023-01-08T05:10:07.842Z,100.00
2023-01-08T05:12:09.694Z,100.00
2023-01-08T05:14:12.697Z,100.00
2023-01-08T05:16:14.982Z,100.00
2023-01-08T05:18:16.998Z,100.00
2023-01-08T05:20:19.167Z,100.00
2023-01-08T05:22:21.027Z,100.00
2023-01-08T05:24:22.922Z,100.00
2023-01-08T05:26:24.944Z,100.00
2023-01-08T05:28:27.889Z,100.00
2023-01-08T05:30:29.847Z,100.00
2023-01-08T05:32:33.756Z,100.00
2023-01-08T05:34:35.719Z,100.00
2023-01-08T05:36:37.569Z,100.00
2023-01-08T05:38:40.347Z,100.00
2023-01-08T05:40:42.562Z,100.00
2023-01-08T05:42:45.471Z,100.00
2023-01-08T05:44:47.325Z,100.00
2023-01-08T05:46:50.340Z,100.00
2023-01-08T05:48:53.286Z,100.00
2023-01-08T05:50:55.400Z,100.00
2023-01-08T05:52:57.339Z,100.00
2023-01-08T05:55:00.375Z,100.00
2023-01-08T05:57:02.333Z,100.00
2023-01-08T05:59:04.191Z,100.00
2023-01-08T06:01:12.151Z,100.00
2023-01-08T06:03:15.050Z,100.00
2023-01-08T06:05:19.466Z,100.00
2023-01-08T06:07:21.294Z,100.00
2023-01-08T06:09:23.212Z,100.00
2023-01-08T06:11:25.110Z,100.00
2023-01-08T06:13:27.546Z,100.00
2023-01-08T06:15:29.494Z,100.00
2023-01-08T06:17:31.620Z,100.00
2023-01-08T06:19:33.734Z,100.00
2023-01-08T06:21:35.574Z,100.00
2023-01-08T06:23:37.495Z,100.00
2023-01-08T06:25:39.365Z,100.00
2023-01-08T06:27:41.206Z,100.00
2023-01-08T06:29:43.052Z,100.00
2023-01-08T06:31:44.979Z,100.00
2023-01-08T06:33:46.884Z,100.00
2023-01-08T06:35:49.293Z,100.00
2023-01-08T06:37:51.418Z,100.00
2023-01-08T06:39:53.383Z,100.00
2023-01-08T06:41:55.202Z,100.00
2023-01-08T06:43:58.195Z,100.00
2023-01-08T06:46:00.171Z,100.00
2023-01-08T06:48:03.360Z,100.00
2023-01-08T06:50:07.022Z,100.00
2023-01-08T06:52:09.089Z,100.00
2023-01-08T06:54:13.731Z,100.00
2023-01-08T06:56:19.549Z,100.00
2023-01-08T06:58:21.473Z,100.00
2023-01-08T07:00:25.970Z,100.00
2023-01-08T07:02:28.031Z,99.96
2023-01-08T07:04:30.003Z,99.94
2023-01-08T07:06:31.917Z,99.70
2023-01-08T07:08:34.035Z,99.38
2023-01-08T07:10:35.980Z,98.89
2023-01-08T07:12:37.968Z,99.30
2023-01-08T07:14:40.660Z,98.98
2023-01-08T07:16:42.643Z,99.05
2023-01-08T07:18:45.090Z,98.94
2023-01-08T07:20:48.994Z,98.91
2023-01-08T07:22:50.869Z,98.61
2023-01-08T07:24:53.219Z,98.29
2023-01-08T07:26:55.090Z,98.95
2023-01-08T07:28:57.981Z,98.60
2023-01-08T07:31:03.874Z,99.08
2023-01-08T07:33:05.906Z,98.98
2023-01-08T07:35:08.193Z,98.78
2023-01-08T07:37:10.138Z,98.76
2023-01-08T07:39:12.001Z,98.18
2023-01-08T07:41:16.602Z,98.10
2023-01-08T07:43:18.650Z,97.83
2023-01-08T07:45:21.587Z,98.67
2023-01-08T07:47:23.491Z,98.38
2023-01-08T07:49:25.373Z,98.38
2023-01-08T07:51:27.500Z,98.30
2023-01-08T07:53:29.717Z,98.47
2023-01-08T07:55:31.920Z,98.03
2023-01-08T07:57:33.860Z,97.97
2023-01-08T07:59:35.843Z,98.04
2023-01-08T08:01:37.930Z,98.08
2023-01-08T08:03:40.380Z,97.96
2023-01-08T08:05:42.351Z,97.68
2023-01-08T08:07:44.982Z,97.83
2023-01-08T08:09:46.897Z,98.27
2023-01-08T08:11:48.784Z,97.21
2023-01-08T08:13:53.095Z,97.69
2023-01-08T08:15:55.833Z,97.92
2023-01-08T08:17:58.847Z,97.80
2023-01-08T08:20:00.786Z,98.00
2023-01-08T08:22:02.700Z,97.66
2023-01-08T08:24:05.000Z,98.02
2023-01-08T08:26:09.040Z,98.05
2023-01-08T08:28:12.327Z,97.57
2023-01-08T08:30:15.390Z,97.71
2023-01-08T08:32:17.269Z,97.85
2023-01-08T08:34:21.185Z,98.14
2023-01-08T08:36:29.315Z,97.74
2023-01-08T08:38:32.407Z,97.51
2023-01-08T08:40:34.391Z,97.23
2023-01-08T08:42:36.470Z,98.00
2023-01-08T08:44:38.463Z,97.44
2023-01-08T08:46:40.469Z,97.46
2023-01-08T08:48:42.444Z,97.32
2023-01-08T08:50:44.445Z,97.79
2023-01-08T08:52:47.134Z,97.42
2023-01-08T08:54:49.093Z,97.59
2023-01-08T08:56:51.070Z,97.35
2023-01-08T08:58:53.133Z,97.28
2023-01-08T09:00:55.191Z,97.20
2023-01-08T09:02:57.410Z,97.74
2023-01-08T09:04:59.391Z,97.10
2023-01-08T09:07:01.476Z,97.37
2023-01-08T09:09:03.741Z,97.23
2023-01-08T09:11:05.771Z,97.37
2023-01-08T09:13:07.753Z,96.82
2023-01-08T09:15:11.267Z,96.51
2023-01-08T09:17:13.135Z,96.16
2023-01-08T09:19:16.203Z,96.83
2023-01-08T09:21:18.049Z,96.52
2023-01-08T09:23:20.027Z,96.09
2023-01-08T09:25:21.992Z,96.13
2023-01-08T09:27:23.941Z,96.11
2023-01-08T09:29:25.972Z,95.87
2023-01-08T09:31:28.115Z,95.52
2023-01-08T09:33:30.570Z,95.76
2023-01-08T09:35:33.837Z,95.81
2023-01-08T09:37:35.868Z,95.48
2023-01-08T09:39:37.854Z,95.30
2023-01-08T09:41:43.834Z,95.90
2023-01-08T09:43:48.603Z,95.55
2023-01-08T09:45:55.242Z,95.05
2023-01-08T09:48:04.778Z,95.08
2023-01-08T09:50:14.260Z,95.08
2023-01-08T09:52:16.470Z,94.80
2023-01-08T09:54:18.778Z,95.09
2023-01-08T09:56:21.006Z,95.42
2023-01-08T09:58:53.782Z,94.63
2023-01-08T10:00:56.228Z,93.91
2023-01-08T10:02:58.722Z,94.18
2023-01-08T10:05:01.440Z,94.18
2023-01-08T10:07:16.073Z,93.71
2023-01-08T10:09:21.514Z,94.17
2023-01-08T10:11:26.621Z,93.96
2023-01-08T10:13:28.571Z,93.53
2023-01-08T10:15:36.148Z,93.59
2023-01-08T10:17:41.117Z,93.48
2023-01-08T10:19:44.915Z,93.11
2023-01-08T10:21:47.331Z,92.52
2023-01-08T10:23:51.714Z,93.21
2023-01-08T10:26:11.507Z,92.64
2023-01-08T10:28:20.558Z,92.73
2023-01-08T10:30:31.246Z,93.46
2023-01-08T10:32:36.874Z,93.44
2023-01-08T10:34:50.812Z,93.76
2023-01-08T10:36:53.824Z,93.42
2023-01-08T10:39:02.341Z,92.88
2023-01-08T10:41:11.378Z,92.88
2023-01-08T10:43:17.675Z,93.44
2023-01-08T10:45:23.353Z,93.50
2023-01-08T10:47:27.984Z,93.67
2023-01-08T10:49:37.141Z,92.52
2023-01-08T10:51:50.873Z,92.45
2023-01-08T10:53:55.757Z,91.82
2023-01-08T10:56:03.012Z,91.08
2023-01-08T10:58:15.023Z,91.09
2023-01-08T11:00:31.736Z,91.13
2023-01-08T11:02:39.941Z,91.31
2023-01-08T11:04:43.030Z,90.61
2023-01-08T11:06:48.771Z,90.40
2023-01-08T11:08:57.988Z,90.87
2023-01-08T11:11:01.787Z,90.38
2023-01-08T11:13:08.631Z,89.82
2023-01-08T11:15:19.413Z,90.47
2023-01-08T11:17:26.177Z,90.70
2023-01-08T11:19:33.966Z,90.51
2023-01-08T11:21:37.178Z,90.12
2023-01-08T11:23:40.067Z,90.26
2023-01-08T11:25:48.592Z,90.01
2023-01-08T11:27:52.773Z,90.42
2023-01-08T11:30:12.681Z,89.60
2023-01-08T11:32:42.281Z,89.71
2023-01-08T11:35:04.583Z,89.66
2023-01-08T11:37:19.537Z,90.27
2023-01-08T11:39:21.656Z,89.98
2023-01-08T11:41:53.060Z,89.74
2023-01-08T11:44:00.769Z,89.80
2023-01-08T11:46:22.373Z,90.21
2023-01-08T11:48:37.596Z,91.04
2023-01-08T11:51:08.464Z,90.90
2023-01-08T11:53:16.762Z,91.16
2023-01-08T11:55:48.620Z,90.75
2023-01-08T11:58:23.078Z,90.35
2023-01-08T12:00:57.198Z,91.03
2023-01-08T12:03:11.674Z,90.46
2023-01-08T12:05:30.008Z,89.84
2023-01-08T12:07:44.841Z,90.65
2023-01-08T12:09:57.074Z,90.51
2023-01-08T12:12:24.688Z,90.87
2023-01-08T12:14:38.768Z,90.89
2023-01-08T12:17:17.629Z,90.94
2023-01-08T12:19:36.478Z,90.65
2023-01-08T12:21:48.848Z,90.99
2023-01-08T12:24:03.620Z,90.71
2023-01-08T12:26:17.257Z,91.73
2023-01-08T12:28:28.340Z,90.53
2023-01-08T12:31:00.035Z,90.46
2023-01-08T12:33:11.504Z,90.10
2023-01-08T12:35:23.035Z,89.84
2023-01-08T12:37:39.421Z,89.70
2023-01-08T12:39:50.997Z,89.58
2023-01-08T12:41:56.742Z,89.56
2023-01-08T12:44:12.143Z,89.80
2023-01-08T12:46:17.271Z,89.75
2023-01-08T12:48:23.315Z,89.71
2023-01-08T12:50:53.154Z,89.03
2023-01-08T12:53:14.894Z,89.45
2023-01-08T12:55:54.865Z,89.48
2023-01-08T12:58:18.736Z,89.55
2023-01-08T13:00:38.020Z,89.49
2023-01-08T13:02:57.258Z,89.77
2023-01-08T13:04:59.236Z,89.98
2023-01-08T13:07:05.233Z,89.87
2023-01-08T13:09:07.187Z,90.72
2023-01-08T13:11:09.508Z,90.77
2023-01-08T13:13:41.968Z,90.61
2023-01-08T13:15:44.216Z,90.72
2023-01-08T13:17:49.971Z,90.98
2023-01-08T13:19:55.297Z,90.84
2023-01-08T13:21:59.208Z,91.27
2023-01-08T13:24:37.636Z,91.05
2023-01-08T13:26:39.683Z,91.13
2023-01-08T13:28:44.809Z,91.59
2023-01-08T13:30:49.286Z,91.23
2023-01-08T13:32:51.373Z,91.88
2023-01-08T13:35:14.948Z,91.34
2023-01-08T13:37:27.875Z,91.49
2023-01-08T13:39:38.417Z,91.54
2023-01-08T13:41:56.890Z,91.60
2023-01-08T13:44:02.745Z,91.50
2023-01-08T13:46:17.913Z,92.08
2023-01-08T13:48:29.140Z,91.64
2023-01-08T13:50:32.740Z,91.95
2023-01-08T13:52:47.492Z,91.92
2023-01-08T13:54:49.433Z,92.29
2023-01-08T13:57:02.764Z,92.39
2023-01-08T13:59:08.233Z,92.50
2023-01-08T14:01:11.707Z,92.29
2023-01-08T14:03:28.046Z,92.46
2023-01-08T14:05:34.871Z,92.31
2023-01-08T14:07:39.240Z,92.40
2023-01-08T14:09:41.124Z,92.91
2023-01-08T14:11:46.797Z,92.93
2023-01-08T14:13:49.113Z,92.78
2023-01-08T14:15:51.157Z,94.10
2023-01-08T14:17:56.599Z,94.51
2023-01-08T14:20:00.610Z,94.90
2023-01-08T14:22:02.816Z,95.11
2023-01-08T14:24:06.843Z,95.35
2023-01-08T14:26:16.607Z,95.00
2023-01-08T14:28:21.018Z,95.79
2023-01-08T14:30:26.266Z,95.78
2023-01-08T14:32:31.144Z,95.75
2023-01-08T14:34:37.085Z,95.83
2023-01-08T14:36:39.804Z,95.63
2023-01-08T14:38:42.815Z,95.59
2023-01-08T14:41:04.108Z,95.62
2023-01-08T14:43:12.668Z,95.00
2023-01-08T14:45:24.932Z,96.05
2023-01-08T14:47:34.668Z,96.10
2023-01-08T14:49:43.752Z,95.66
2023-01-08T14:51:45.851Z,95.84
2023-01-08T14:54:09.748Z,95.88
2023-01-08T14:56:17.969Z,94.75
2023-01-08T14:58:24.262Z,94.52
2023-01-08T15:00:32.048Z,93.94
2023-01-08T15:02:37.779Z,93.29
2023-01-08T15:04:39.780Z,93.35
2023-01-08T15:06:42.171Z,92.62
2023-01-08T15:08:45.138Z,93.02
2023-01-08T15:10:58.499Z,92.51
2023-01-08T15:13:04.148Z,92.75
2023-01-08T15:15:11.251Z,92.65
2023-01-08T15:17:18.612Z,92.10
2023-01-08T15:19:25.787Z,92.19
2023-01-08T15:21:28.012Z,92.51
2023-01-08T15:23:58.023Z,92.92
2023-01-08T15:26:00.055Z,92.46
2023-01-08T15:28:04.065Z,92.16
2023-01-08T15:30:09.424Z,92.23
2023-01-08T15:32:22.738Z,91.94
2023-01-08T15:34:24.626Z,92.34
2023-01-08T15:36:27.063Z,92.07
2023-01-08T15:38:29.039Z,92.32
2023-01-08T15:40:31.019Z,91.84
2023-01-08T15:42:51.951Z,92.37
2023-01-08T15:44:53.898Z,92.44
2023-01-08T15:46:56.018Z,92.38
2023-01-08T15:48:57.956Z,92.67
2023-01-08T15:51:00.769Z,92.04
2023-01-08T15:53:03.608Z,91.91
2023-01-08T15:55:15.151Z,92.17
2023-01-08T15:57:17.072Z,92.02
2023-01-08T15:59:19.112Z,92.10
2023-01-08T16:01:21.362Z,92.41
2023-01-08T16:03:25.775Z,92.24
2023-01-08T16:05:30.024Z,91.72
2023-01-08T16:07:32.166Z,92.11
2023-01-08T16:09:34.114Z,92.17
2023-01-08T16:11:36.331Z,91.86
2023-01-08T16:13:38.739Z,92.28
2023-01-08T16:15:40.941Z,92.33
2023-01-08T16:17:43.606Z,92.01
2023-01-08T16:19:46.073Z,92.28
2023-01-08T16:21:50.672Z,92.85
2023-01-08T16:23:53.950Z,91.96
2023-01-08T16:25:55.953Z,92.11
2023-01-08T16:27:58.752Z,91.96
2023-01-08T16:30:01.302Z,91.95
2023-01-08T16:32:03.805Z,91.16
2023-01-08T16:34:06.351Z,92.32
2023-01-08T16:36:10.982Z,91.91
2023-01-08T16:38:14.324Z,91.91
2023-01-08T16:40:16.890Z,91.85
2023-01-08T16:42:21.736Z,91.78
2023-01-08T16:44:28.842Z,91.57
2023-01-08T16:46:31.230Z,91.53
2023-01-08T16:48:33.510Z,91.76
2023-01-08T16:50:35.971Z,91.75
2023-01-08T16:52:39.577Z,91.79
2023-01-08T16:54:48.890Z,91.67
2023-01-08T16:56:52.802Z,91.69
2023-01-08T16:58:54.785Z,91.34
2023-01-08T17:00:58.698Z,91.62
2023-01-08T17:03:01.936Z,91.87
2023-01-08T17:05:04.507Z,91.54
2023-01-08T17:07:06.941Z,91.27
2023-01-08T17:09:11.416Z,91.59
2023-01-08T17:11:16.393Z,91.96
2023-01-08T17:13:18.909Z,91.49
2023-01-08T17:15:21.163Z,91.62
2023-01-08T17:17:23.212Z,91.51
2023-01-08T17:19:31.402Z,91.93
2023-01-08T17:21:34.334Z,91.82
2023-01-08T17:23:36.911Z,91.47
2023-01-08T17:25:44.501Z,90.99
2023-01-08T17:27:46.648Z,91.67
2023-01-08T17:29:48.735Z,91.88
2023-01-08T17:31:51.408Z,91.80
2023-01-08T17:33:54.828Z,91.75
2023-01-08T17:35:58.517Z,91.32
2023-01-08T17:38:01.227Z,91.64
2023-01-08T17:40:05.304Z,91.74
2023-01-08T17:42:26.454Z,91.44
2023-01-08T17:44:31.669Z,91.40
2023-01-08T17:46:42.494Z,91.89
2023-01-08T17:48:46.377Z,91.94
2023-01-08T17:50:50.060Z,91.51
2023-01-08T17:52:52.395Z,91.68
2023-01-08T17:54:55.213Z,91.54
2023-01-08T17:56:58.317Z,91.63
2023-01-08T17:59:00.571Z,91.59
2023-01-08T18:01:02.901Z,91.39
2023-01-08T18:03:05.260Z,90.99
2023-01-08T18:05:09.254Z,91.12
2023-01-08T18:07:14.851Z,91.64
2023-01-08T18:09:17.491Z,91.59
2023-01-08T18:11:19.626Z,91.80
2023-01-08T18:13:21.968Z,91.46
2023-01-08T18:15:25.695Z,91.71
2023-01-08T18:17:32.819Z,91.57
2023-01-08T18:19:35.037Z,92.05
2023-01-08T18:21:37.075Z,91.61
2023-01-08T18:23:39.387Z,91.76
2023-01-08T18:25:44.174Z,91.38
2023-01-08T18:27:46.692Z,92.07
2023-01-08T18:29:48.954Z,91.70
2023-01-08T18:31:53.389Z,91.38
2023-01-08T18:33:55.744Z,92.14
2023-01-08T18:36:09.545Z,91.69
2023-01-08T18:38:16.287Z,91.87
2023-01-08T18:40:19.557Z,91.60
2023-01-08T18:42:28.664Z,92.11
2023-01-08T18:44:32.212Z,92.38
2023-01-08T18:46:36.576Z,91.67
2023-01-08T18:48:38.920Z,91.48
2023-01-08T18:50:41.617Z,92.28
2023-01-08T18:52:43.673Z,91.92
2023-01-08T18:54:46.485Z,91.91
2023-01-08T18:56:48.839Z,92.25
2023-01-08T18:58:51.649Z,92.06
2023-01-08T19:00:54.382Z,92.39
2023-01-08T19:02:57.345Z,92.75
2023-01-08T19:04:59.740Z,92.19
2023-01-08T19:07:02.065Z,91.99
2023-01-08T19:09:04.818Z,92.14
2023-01-08T19:11:13.255Z,92.44
2023-01-08T19:13:19.759Z,92.09
2023-01-08T19:15:26.234Z,91.92
2023-01-08T19:17:31.509Z,92.29
2023-01-08T19:19:36.205Z,91.96
2023-01-08T19:21:38.767Z,92.02
2023-01-08T19:23:41.807Z,91.76
2023-01-08T19:25:45.073Z,92.33
2023-01-08T19:27:47.609Z,92.02
2023-01-08T19:29:50.490Z,92.27
2023-01-08T19:31:53.033Z,92.30
2023-01-08T19:34:00.992Z,92.05
2023-01-08T19:36:12.888Z,92.42
2023-01-08T19:38:15.535Z,92.24
2023-01-08T19:40:19.329Z,92.88
2023-01-08T19:42:42.207Z,92.59
2023-01-08T19:44:47.678Z,91.80
2023-01-08T19:46:50.465Z,91.78
2023-01-08T19:48:53.765Z,92.16
2023-01-08T19:50:56.238Z,92.18
2023-01-08T19:52:58.668Z,92.18
2023-01-08T19:55:05.409Z,92.34
2023-01-08T19:57:07.898Z,92.46
2023-01-08T19:59:13.205Z,92.16
2023-01-08T20:01:18.862Z,92.22
2023-01-08T20:03:30.644Z,92.03
2023-01-08T20:05:33.368Z,92.74
2023-01-08T20:07:37.497Z,92.14
2023-01-08T20:09:41.422Z,91.95
2023-01-08T20:11:44.114Z,92.19
2023-01-08T20:13:46.831Z,92.69
2023-01-08T20:16:00.314Z,92.51
2023-01-08T20:18:04.383Z,92.13
2023-01-08T20:20:08.050Z,92.68
2023-01-08T20:22:10.964Z,92.56
2023-01-08T20:24:16.561Z,92.39
2023-01-08T20:26:25.680Z,92.77
2023-01-08T20:28:28.564Z,92.75
2023-01-08T20:30:33.776Z,92.22
2023-01-08T20:32:39.746Z,92.82
2023-01-08T20:34:49.988Z,92.74
2023-01-08T20:36:58.245Z,92.61
2023-01-08T20:39:04.911Z,92.82
2023-01-08T20:41:10.002Z,92.95
2023-01-08T20:43:14.055Z,92.85
2023-01-08T20:45:35.271Z,92.91
2023-01-08T20:47:44.992Z,92.85
2023-01-08T20:49:49.563Z,93.21
2023-01-08T20:51:58.465Z,92.66
2023-01-08T20:54:17.530Z,92.75
2023-01-08T20:56:28.906Z,93.00
2023-01-08T20:58:30.831Z,92.89
2023-01-08T21:00:33.095Z,93.08
2023-01-08T21:02:37.745Z,93.39
2023-01-08T21:04:41.811Z,93.32
2023-01-08T21:06:43.878Z,93.42
2023-01-08T21:08:57.685Z,93.78
2023-01-08T21:11:01.466Z,93.60
2023-01-08T21:13:04.526Z,93.71
2023-01-08T21:15:09.313Z,93.62
2023-01-08T21:17:34.217Z,93.46
2023-01-08T21:22:15.039Z,93.75
2023-01-08T21:24:27.661Z,94.33
2023-01-08T21:26:35.871Z,94.36
2023-01-08T21:29:12.650Z,94.38
2023-01-08T21:31:45.428Z,94.22
2023-01-08T21:33:55.401Z,94.44
2023-01-08T21:36:37.474Z,94.80
2023-01-08T21:38:57.110Z,94.44
2023-01-08T21:41:40.867Z,94.54
2023-01-08T21:46:51.853Z,95.27
2023-01-08T21:49:37.811Z,95.36
2023-01-08T21:52:47.000Z,94.90
2023-01-08T21:57:14.476Z,94.67
2023-01-08T21:59:24.612Z,94.82
2023-01-08T22:03:59.794Z,96.28
2023-01-08T22:07:21.254Z,96.67
2023-01-08T22:12:01.223Z,97.36
2023-01-08T22:15:30.932Z,97.80
2023-01-08T22:19:34.422Z,98.10
2023-01-08T22:22:13.174Z,97.53
2023-01-08T22:25:12.743Z,97.72
2023-01-08T22:28:05.299Z,98.87
2023-01-08T22:33:13.315Z,98.62
2023-01-08T22:35:44.857Z,98.97
2023-01-08T22:40:46.798Z,98.70
2023-01-08T22:42:51.051Z,98.70
2023-01-08T22:45:12.650Z,98.55
2023-01-08T22:47:15.764Z,98.89
2023-01-08T22:49:22.756Z,98.81
2023-01-08T22:51:29.162Z,98.90
2023-01-08T22:53:31.133Z,98.88
2023-01-08T22:55:34.163Z,99.00
2023-01-08T22:57:55.192Z,99.29
2023-01-08T22:59:57.286Z,98.70
2023-01-08T23:02:05.451Z,99.42
2023-01-08T23:04:07.681Z,99.46
2023-01-08T23:06:21.322Z,99.31
2023-01-08T23:08:24.284Z,99.61
2023-01-08T23:10:30.602Z,99.39
2023-01-08T23:12:34.582Z,99.99
2023-01-08T23:14:37.579Z,99.86
2023-01-08T23:16:42.533Z,100.00
2023-01-08T23:18:44.843Z,100.00
2023-01-08T23:20:46.906Z,100.00
2023-01-08T23:22:51.474Z,99.72
2023-01-08T23:24:57.063Z,100.00
2023-01-08T23:27:01.090Z,100.00
2023-01-08T23:29:09.640Z,100.00
2023-01-08T23:31:15.889Z,100.00
2023-01-08T23:33:17.812Z,100.00
2023-01-08T23:35:26.021Z,100.00
2023-01-08T23:37:35.149Z,100.00
2023-01-08T23:39:38.159Z,100.00
2023-01-08T23:41:41.072Z,100.00
2023-01-08T23:43:50.401Z,100.00
2023-01-08T23:45:54.248Z,100.00
2023-01-08T23:47:56.231Z,100.00
2023-01-08T23:49:58.133Z,100.00
2023-01-08T23:52:01.871Z,100.00
2023-01-08T23:54:04.039Z,100.00
2023-01-08T23:56:13.456Z,100.00
2023-01-08T23:58:15.479Z,100.00
